sensor_id;sensor_type;location;lat;lon;timestamp;temperature;humidity
59651;DHT22;45954;49.768;8.636;2022-09-13T00:01:00;18.20;96.20
59651;DHT22;45954;49.768;8.636;2022-09-13T00:03:26;18.10;96.30
59651;DHT22;45954;49.768;8.636;2022-09-13T00:05:53;18.10;96.60
59651;DHT22;45954;49.768;8.636;2022-09-13T00:08:19;18.10;96.50
59651;DHT22;45954;49.768;8.636;2022-09-13T00:10:46;18.10;96.50
59651;DHT22;45954;49.768;8.636;2022-09-13T00:13:14;18.10;96.60
59651;DHT22;45954;49.768;8.636;2022-09-13T00:15:43;18.20;96.80
59651;DHT22;45954;49.768;8.636;2022-09-13T00:18:10;18.20;96.70
59651;DHT22;45954;49.768;8.636;2022-09-13T00:20:36;17.90;96.80
59651;DHT22;45954;49.768;8.636;2022-09-13T00:23:02;17.90;97.10
59651;DHT22;45954;49.768;8.636;2022-09-13T00:25:28;17.80;96.90
59651;DHT22;45954;49.768;8.636;2022-09-13T00:27:54;17.80;97.10
59651;DHT22;45954;49.768;8.636;2022-09-13T00:30:20;17.80;97.20
59651;DHT22;45954;49.768;8.636;2022-09-13T00:32:46;17.90;97.10
59651;DHT22;45954;49.768;8.636;2022-09-13T00:35:12;18.00;97.00
59651;DHT22;45954;49.768;8.636;2022-09-13T00:37:37;17.80;96.90
59651;DHT22;45954;49.768;8.636;2022-09-13T00:40:04;17.80;97.30
59651;DHT22;45954;49.768;8.636;2022-09-13T00:42:31;17.90;97.10
59651;DHT22;45954;49.768;8.636;2022-09-13T00:50:28;17.60;97.60
59651;DHT22;45954;49.768;8.636;2022-09-13T00:53:04;17.60;97.70
59651;DHT22;45954;49.768;8.636;2022-09-13T00:55:56;17.60;97.80
59651;DHT22;45954;49.768;8.636;2022-09-13T00:58:50;17.60;97.70
59651;DHT22;45954;49.768;8.636;2022-09-13T01:01:22;17.60;97.70
59651;DHT22;45954;49.768;8.636;2022-09-13T01:03:51;17.40;97.80
59651;DHT22;45954;49.768;8.636;2022-09-13T01:06:24;17.50;98.10
59651;DHT22;45954;49.768;8.636;2022-09-13T01:08:55;17.50;97.90
59651;DHT22;45954;49.768;8.636;2022-09-13T01:11:48;17.60;97.90
59651;DHT22;45954;49.768;8.636;2022-09-13T01:14:22;17.70;97.80
59651;DHT22;45954;49.768;8.636;2022-09-13T01:16:48;17.80;97.80
59651;DHT22;45954;49.768;8.636;2022-09-13T01:19:16;17.70;97.80
59651;DHT22;45954;49.768;8.636;2022-09-13T01:28:29;17.40;98.30
59651;DHT22;45954;49.768;8.636;2022-09-13T01:31:19;17.40;98.10
59651;DHT22;45954;49.768;8.636;2022-09-13T01:34:32;17.40;98.30
59651;DHT22;45954;49.768;8.636;2022-09-13T01:52:46;17.20;98.60
59651;DHT22;45954;49.768;8.636;2022-09-13T01:58:48;17.60;97.80
59651;DHT22;45954;49.768;8.636;2022-09-13T02:01:43;17.60;97.70
59651;DHT22;45954;49.768;8.636;2022-09-13T02:04:26;16.70;98.90
59651;DHT22;45954;49.768;8.636;2022-09-13T02:07:16;16.60;99.30
59651;DHT22;45954;49.768;8.636;2022-09-13T02:09:51;16.80;98.90
59651;DHT22;45954;49.768;8.636;2022-09-13T02:12:24;16.70;99.40
59651;DHT22;45954;49.768;8.636;2022-09-13T02:15:16;16.60;99.30
59651;DHT22;45954;49.768;8.636;2022-09-13T02:17:51;16.70;99.30
59651;DHT22;45954;49.768;8.636;2022-09-13T02:20:30;16.80;99.10
59651;DHT22;45954;49.768;8.636;2022-09-13T02:23:06;16.60;99.20
59651;DHT22;45954;49.768;8.636;2022-09-13T02:25:39;16.60;99.40
59651;DHT22;45954;49.768;8.636;2022-09-13T02:28:10;16.70;99.30
59651;DHT22;45954;49.768;8.636;2022-09-13T02:30:42;17.20;99.00
59651;DHT22;45954;49.768;8.636;2022-09-13T02:33:17;17.40;98.50
59651;DHT22;45954;49.768;8.636;2022-09-13T02:35:55;17.00;98.60
59651;DHT22;45954;49.768;8.636;2022-09-13T02:38:30;16.70;99.00
59651;DHT22;45954;49.768;8.636;2022-09-13T02:44:13;16.50;99.40
59651;DHT22;45954;49.768;8.636;2022-09-13T02:53:14;16.50;99.20
59651;DHT22;45954;49.768;8.636;2022-09-13T02:56:20;16.50;99.40
59651;DHT22;45954;49.768;8.636;2022-09-13T02:59:00;16.30;99.90
59651;DHT22;45954;49.768;8.636;2022-09-13T03:01:32;15.80;99.90
59651;DHT22;45954;49.768;8.636;2022-09-13T03:03:59;15.90;99.90
59651;DHT22;45954;49.768;8.636;2022-09-13T03:06:28;16.10;99.90
59651;DHT22;45954;49.768;8.636;2022-09-13T03:08:59;16.20;99.90
59651;DHT22;45954;49.768;8.636;2022-09-13T03:12:09;16.30;99.90
59651;DHT22;45954;49.768;8.636;2022-09-13T03:15:03;16.50;99.90
59651;DHT22;45954;49.768;8.636;2022-09-13T03:17:46;16.40;99.90
59651;DHT22;45954;49.768;8.636;2022-09-13T03:23:24;16.50;99.90
59651;DHT22;45954;49.768;8.636;2022-09-13T03:26:11;16.50;99.90
59651;DHT22;45954;49.768;8.636;2022-09-13T03:34:50;16.50;99.90
59651;DHT22;45954;49.768;8.636;2022-09-13T03:37:43;16.40;99.90
59651;DHT22;45954;49.768;8.636;2022-09-13T03:40:33;16.30;99.90
59651;DHT22;45954;49.768;8.636;2022-09-13T03:43:11;16.30;99.90
59651;DHT22;45954;49.768;8.636;2022-09-13T03:45:48;16.40;99.90
59651;DHT22;45954;49.768;8.636;2022-09-13T03:48:17;16.40;99.90
59651;DHT22;45954;49.768;8.636;2022-09-13T03:50:45;16.30;99.90
59651;DHT22;45954;49.768;8.636;2022-09-13T03:53:20;16.30;99.90
59651;DHT22;45954;49.768;8.636;2022-09-13T03:55:48;16.20;99.90
59651;DHT22;45954;49.768;8.636;2022-09-13T03:58:18;16.20;99.90
59651;DHT22;45954;49.768;8.636;2022-09-13T04:00:44;16.20;99.90
59651;DHT22;45954;49.768;8.636;2022-09-13T04:03:11;16.20;99.90
59651;DHT22;45954;49.768;8.636;2022-09-13T04:05:38;16.20;99.90
59651;DHT22;45954;49.768;8.636;2022-09-13T04:08:06;16.30;99.90
59651;DHT22;45954;49.768;8.636;2022-09-13T04:10:34;16.50;99.90
59651;DHT22;45954;49.768;8.636;2022-09-13T04:13:01;16.70;99.90
59651;DHT22;45954;49.768;8.636;2022-09-13T04:15:28;16.80;99.90
59651;DHT22;45954;49.768;8.636;2022-09-13T04:17:56;16.90;99.90
59651;DHT22;45954;49.768;8.636;2022-09-13T04:20:22;16.60;99.90
59651;DHT22;45954;49.768;8.636;2022-09-13T04:22:54;16.40;99.90
59651;DHT22;45954;49.768;8.636;2022-09-13T04:25:21;16.50;99.90
59651;DHT22;45954;49.768;8.636;2022-09-13T04:27:53;16.60;99.90
59651;DHT22;45954;49.768;8.636;2022-09-13T04:30:20;16.60;99.90
59651;DHT22;45954;49.768;8.636;2022-09-13T04:32:46;16.60;99.90
59651;DHT22;45954;49.768;8.636;2022-09-13T04:35:12;16.70;99.90
59651;DHT22;45954;49.768;8.636;2022-09-13T04:37:39;16.60;99.90
59651;DHT22;45954;49.768;8.636;2022-09-13T04:40:06;16.30;99.90
59651;DHT22;45954;49.768;8.636;2022-09-13T04:42:32;15.80;99.90
59651;DHT22;45954;49.768;8.636;2022-09-13T04:44:59;15.90;99.90
59651;DHT22;45954;49.768;8.636;2022-09-13T04:47:24;15.80;99.90
59651;DHT22;45954;49.768;8.636;2022-09-13T04:49:50;16.00;99.90
59651;DHT22;45954;49.768;8.636;2022-09-13T04:52:16;16.20;99.90
59651;DHT22;45954;49.768;8.636;2022-09-13T04:54:42;16.40;99.90
59651;DHT22;45954;49.768;8.636;2022-09-13T04:57:08;16.50;99.90
59651;DHT22;45954;49.768;8.636;2022-09-13T04:59:34;16.60;99.90
59651;DHT22;45954;49.768;8.636;2022-09-13T05:02:00;16.70;99.90
59651;DHT22;45954;49.768;8.636;2022-09-13T05:04:25;16.50;99.90
59651;DHT22;45954;49.768;8.636;2022-09-13T05:06:51;16.40;99.90
59651;DHT22;45954;49.768;8.636;2022-09-13T05:09:17;16.50;99.90
59651;DHT22;45954;49.768;8.636;2022-09-13T05:11:43;16.40;99.90
59651;DHT22;45954;49.768;8.636;2022-09-13T05:14:10;16.10;99.90
59651;DHT22;45954;49.768;8.636;2022-09-13T05:16:37;16.00;99.90
59651;DHT22;45954;49.768;8.636;2022-09-13T05:19:03;16.30;99.90
59651;DHT22;45954;49.768;8.636;2022-09-13T05:21:30;16.40;99.90
59651;DHT22;45954;49.768;8.636;2022-09-13T05:23:57;16.60;99.90
59651;DHT22;45954;49.768;8.636;2022-09-13T05:26:25;16.70;99.90
59651;DHT22;45954;49.768;8.636;2022-09-13T05:29:00;16.70;99.90
59651;DHT22;45954;49.768;8.636;2022-09-13T05:31:32;16.40;99.90
59651;DHT22;45954;49.768;8.636;2022-09-13T05:34:09;16.40;99.90
59651;DHT22;45954;49.768;8.636;2022-09-13T05:36:37;16.60;99.90
59651;DHT22;45954;49.768;8.636;2022-09-13T05:39:05;16.60;99.90
59651;DHT22;45954;49.768;8.636;2022-09-13T05:41:32;16.60;99.90
59651;DHT22;45954;49.768;8.636;2022-09-13T05:43:58;16.30;99.90
59651;DHT22;45954;49.768;8.636;2022-09-13T05:46:25;16.00;99.90
59651;DHT22;45954;49.768;8.636;2022-09-13T05:48:51;16.20;99.90
59651;DHT22;45954;49.768;8.636;2022-09-13T05:51:19;16.10;99.90
59651;DHT22;45954;49.768;8.636;2022-09-13T05:53:48;16.30;99.90
59651;DHT22;45954;49.768;8.636;2022-09-13T05:56:24;16.60;99.90
59651;DHT22;45954;49.768;8.636;2022-09-13T05:58:52;16.70;99.90
59651;DHT22;45954;49.768;8.636;2022-09-13T06:01:21;16.20;99.90
59651;DHT22;45954;49.768;8.636;2022-09-13T06:03:55;16.30;99.90
59651;DHT22;45954;49.768;8.636;2022-09-13T06:06:24;16.60;99.90
59651;DHT22;45954;49.768;8.636;2022-09-13T06:08:57;16.70;99.90
59651;DHT22;45954;49.768;8.636;2022-09-13T06:11:24;16.70;99.90
59651;DHT22;45954;49.768;8.636;2022-09-13T06:13:52;16.80;99.90
59651;DHT22;45954;49.768;8.636;2022-09-13T06:16:17;17.00;99.90
59651;DHT22;45954;49.768;8.636;2022-09-13T06:18:44;17.20;99.90
59651;DHT22;45954;49.768;8.636;2022-09-13T06:21:14;17.20;99.90
59651;DHT22;45954;49.768;8.636;2022-09-13T06:23:46;16.80;99.90
59651;DHT22;45954;49.768;8.636;2022-09-13T06:26:15;16.60;99.90
59651;DHT22;45954;49.768;8.636;2022-09-13T06:28:46;16.20;99.90
59651;DHT22;45954;49.768;8.636;2022-09-13T06:31:17;16.30;99.90
59651;DHT22;45954;49.768;8.636;2022-09-13T06:33:45;16.60;99.90
59651;DHT22;45954;49.768;8.636;2022-09-13T06:36:18;16.70;99.90
59651;DHT22;45954;49.768;8.636;2022-09-13T06:38:47;16.60;99.90
59651;DHT22;45954;49.768;8.636;2022-09-13T06:41:19;16.20;99.90
59651;DHT22;45954;49.768;8.636;2022-09-13T06:43:56;16.30;99.90
59651;DHT22;45954;49.768;8.636;2022-09-13T06:46:24;16.50;99.90
59651;DHT22;45954;49.768;8.636;2022-09-13T06:48:52;16.90;99.90
59651;DHT22;45954;49.768;8.636;2022-09-13T06:51:20;17.20;99.90
59651;DHT22;45954;49.768;8.636;2022-09-13T06:53:49;17.50;99.90
59651;DHT22;45954;49.768;8.636;2022-09-13T06:56:25;17.60;99.90
59651;DHT22;45954;49.768;8.636;2022-09-13T06:58:55;17.60;99.90
59651;DHT22;45954;49.768;8.636;2022-09-13T07:01:37;17.70;99.90
59651;DHT22;45954;49.768;8.636;2022-09-13T07:04:12;17.50;99.90
59651;DHT22;45954;49.768;8.636;2022-09-13T07:06:45;17.10;99.90
59651;DHT22;45954;49.768;8.636;2022-09-13T07:09:15;16.90;99.90
59651;DHT22;45954;49.768;8.636;2022-09-13T07:11:44;16.90;99.90
59651;DHT22;45954;49.768;8.636;2022-09-13T07:14:15;17.00;99.90
59651;DHT22;45954;49.768;8.636;2022-09-13T07:16:42;17.10;99.90
59651;DHT22;45954;49.768;8.636;2022-09-13T07:19:19;17.20;99.90
59651;DHT22;45954;49.768;8.636;2022-09-13T07:21:48;17.10;99.90
59651;DHT22;45954;49.768;8.636;2022-09-13T07:24:16;17.10;99.90
59651;DHT22;45954;49.768;8.636;2022-09-13T07:26:43;17.20;99.90
59651;DHT22;45954;49.768;8.636;2022-09-13T07:29:12;17.40;99.90
59651;DHT22;45954;49.768;8.636;2022-09-13T07:31:49;17.70;99.90
59651;DHT22;45954;49.768;8.636;2022-09-13T07:34:18;18.00;99.90
59651;DHT22;45954;49.768;8.636;2022-09-13T07:36:46;18.00;99.90
59651;DHT22;45954;49.768;8.636;2022-09-13T07:39:14;17.80;99.90
59651;DHT22;45954;49.768;8.636;2022-09-13T07:41:41;17.90;99.90
59651;DHT22;45954;49.768;8.636;2022-09-13T07:44:09;17.90;99.90
59651;DHT22;45954;49.768;8.636;2022-09-13T07:46:37;17.70;99.90
59651;DHT22;45954;49.768;8.636;2022-09-13T07:49:06;17.50;99.90
59651;DHT22;45954;49.768;8.636;2022-09-13T07:51:35;17.70;99.90
59651;DHT22;45954;49.768;8.636;2022-09-13T07:54:05;17.90;99.90
59651;DHT22;45954;49.768;8.636;2022-09-13T07:56:37;18.10;99.90
59651;DHT22;45954;49.768;8.636;2022-09-13T07:59:06;18.30;99.90
59651;DHT22;45954;49.768;8.636;2022-09-13T08:01:41;18.10;99.90
59651;DHT22;45954;49.768;8.636;2022-09-13T08:04:12;17.90;99.90
59651;DHT22;45954;49.768;8.636;2022-09-13T08:06:41;17.70;99.90
59651;DHT22;45954;49.768;8.636;2022-09-13T08:09:09;17.70;99.90
59651;DHT22;45954;49.768;8.636;2022-09-13T08:11:41;17.90;99.90
59651;DHT22;45954;49.768;8.636;2022-09-13T08:14:13;17.80;99.90
59651;DHT22;45954;49.768;8.636;2022-09-13T08:16:41;17.40;99.90
59651;DHT22;45954;49.768;8.636;2022-09-13T08:19:12;17.30;99.90
59651;DHT22;45954;49.768;8.636;2022-09-13T08:21:41;17.30;99.90
59651;DHT22;45954;49.768;8.636;2022-09-13T08:24:13;17.30;99.90
59651;DHT22;45954;49.768;8.636;2022-09-13T08:26:41;17.40;99.90
59651;DHT22;45954;49.768;8.636;2022-09-13T08:29:07;17.70;99.90
59651;DHT22;45954;49.768;8.636;2022-09-13T08:31:33;18.00;99.90
59651;DHT22;45954;49.768;8.636;2022-09-13T08:34:00;18.20;99.90
59651;DHT22;45954;49.768;8.636;2022-09-13T08:36:27;18.40;99.90
59651;DHT22;45954;49.768;8.636;2022-09-13T08:38:56;18.50;99.90
59651;DHT22;45954;49.768;8.636;2022-09-13T08:41:32;18.90;99.90
59651;DHT22;45954;49.768;8.636;2022-09-13T08:47:49;19.20;99.90
59651;DHT22;45954;49.768;8.636;2022-09-13T08:50:34;19.20;99.90
59651;DHT22;45954;49.768;8.636;2022-09-13T08:58:35;18.80;99.90
59651;DHT22;45954;49.768;8.636;2022-09-13T09:01:43;18.70;99.90
59651;DHT22;45954;49.768;8.636;2022-09-13T09:04:38;18.60;99.90
59651;DHT22;45954;49.768;8.636;2022-09-13T09:07:14;18.60;99.90
59651;DHT22;45954;49.768;8.636;2022-09-13T09:12:42;18.90;99.90
59651;DHT22;45954;49.768;8.636;2022-09-13T09:15:25;19.30;99.90
59651;DHT22;45954;49.768;8.636;2022-09-13T09:18:17;19.30;99.90
59651;DHT22;45954;49.768;8.636;2022-09-13T09:20:51;19.30;99.90
59651;DHT22;45954;49.768;8.636;2022-09-13T09:26:24;19.70;99.90
59651;DHT22;45954;49.768;8.636;2022-09-13T09:28:59;19.80;99.90
59651;DHT22;45954;49.768;8.636;2022-09-13T09:34:20;19.70;99.90
59651;DHT22;45954;49.768;8.636;2022-09-13T09:37:28;19.50;99.90
59651;DHT22;45954;49.768;8.636;2022-09-13T09:40:02;19.70;99.90
59651;DHT22;45954;49.768;8.636;2022-09-13T09:42:42;19.70;99.90
59651;DHT22;45954;49.768;8.636;2022-09-13T09:45:31;20.00;99.90
59651;DHT22;45954;49.768;8.636;2022-09-13T09:48:04;19.50;99.90
59651;DHT22;45954;49.768;8.636;2022-09-13T09:50:42;19.50;99.90
59651;DHT22;45954;49.768;8.636;2022-09-13T09:53:21;19.70;99.90
59651;DHT22;45954;49.768;8.636;2022-09-13T09:58:52;19.80;99.90
59651;DHT22;45954;49.768;8.636;2022-09-13T10:01:30;19.90;99.90
59651;DHT22;45954;49.768;8.636;2022-09-13T10:04:18;19.90;99.90
59651;DHT22;45954;49.768;8.636;2022-09-13T10:06:45;20.10;99.90
59651;DHT22;45954;49.768;8.636;2022-09-13T10:11:55;20.30;99.90
59651;DHT22;45954;49.768;8.636;2022-09-13T10:17:24;20.90;99.70
59651;DHT22;45954;49.768;8.636;2022-09-13T10:19:59;21.00;99.20
59651;DHT22;45954;49.768;8.636;2022-09-13T10:22:31;20.90;98.50
59651;DHT22;45954;49.768;8.636;2022-09-13T10:25:32;21.00;99.20
59651;DHT22;45954;49.768;8.636;2022-09-13T10:28:03;21.00;98.90
59651;DHT22;45954;49.768;8.636;2022-09-13T10:30:58;21.00;98.80
59651;DHT22;45954;49.768;8.636;2022-09-13T10:34:13;20.70;99.40
59651;DHT22;45954;49.768;8.636;2022-09-13T10:36:23;20.60;99.60
59651;DHT22;45954;49.768;8.636;2022-09-13T10:39:00;20.70;99.20
59651;DHT22;45954;49.768;8.636;2022-09-13T10:41:32;20.60;99.30
59651;DHT22;45954;49.768;8.636;2022-09-13T10:44:02;20.70;99.30
59651;DHT22;45954;49.768;8.636;2022-09-13T10:46:35;20.80;98.80
59651;DHT22;45954;49.768;8.636;2022-09-13T10:49:03;20.80;99.20
59651;DHT22;45954;49.768;8.636;2022-09-13T10:51:36;20.80;98.70
59651;DHT22;45954;49.768;8.636;2022-09-13T10:54:32;20.80;98.90
59651;DHT22;45954;49.768;8.636;2022-09-13T10:56:59;20.80;98.90
59651;DHT22;45954;49.768;8.636;2022-09-13T10:59:27;20.90;99.40
59651;DHT22;45954;49.768;8.636;2022-09-13T11:02:27;21.00;99.00
59651;DHT22;45954;49.768;8.636;2022-09-13T11:05:25;21.10;98.60
59651;DHT22;45954;49.768;8.636;2022-09-13T11:11:21;21.30;98.80
59651;DHT22;45954;49.768;8.636;2022-09-13T11:23:29;21.50;98.70
59651;DHT22;45954;49.768;8.636;2022-09-13T11:26:27;21.50;99.30
59651;DHT22;45954;49.768;8.636;2022-09-13T11:29:09;21.20;99.10
59651;DHT22;45954;49.768;8.636;2022-09-13T11:32:24;21.20;99.30
59651;DHT22;45954;49.768;8.636;2022-09-13T11:38:52;21.20;99.60
59651;DHT22;45954;49.768;8.636;2022-09-13T11:44:53;21.20;99.90
59651;DHT22;45954;49.768;8.636;2022-09-13T11:54:06;20.80;99.90
59651;DHT22;45954;49.768;8.636;2022-09-13T11:56:49;20.80;99.90
59651;DHT22;45954;49.768;8.636;2022-09-13T11:59:39;20.60;99.90
59651;DHT22;45954;49.768;8.636;2022-09-13T12:02:20;20.80;99.90
59651;DHT22;45954;49.768;8.636;2022-09-13T12:08:09;21.40;99.70
59651;DHT22;45954;49.768;8.636;2022-09-13T12:10:57;21.60;99.90
59651;DHT22;45954;49.768;8.636;2022-09-13T12:13:53;21.50;99.90
59651;DHT22;45954;49.768;8.636;2022-09-13T12:16:49;21.20;99.90
59651;DHT22;45954;49.768;8.636;2022-09-13T12:19:25;21.20;99.90
59651;DHT22;45954;49.768;8.636;2022-09-13T12:21:57;21.10;99.90
59651;DHT22;45954;49.768;8.636;2022-09-13T12:24:52;21.20;99.90
59651;DHT22;45954;49.768;8.636;2022-09-13T12:27:42;21.40;99.90
59651;DHT22;45954;49.768;8.636;2022-09-13T12:30:19;21.50;99.90
59651;DHT22;45954;49.768;8.636;2022-09-13T12:32:47;21.60;99.90
59651;DHT22;45954;49.768;8.636;2022-09-13T12:35:35;21.80;99.90
59651;DHT22;45954;49.768;8.636;2022-09-13T12:40:58;22.10;99.70
59651;DHT22;45954;49.768;8.636;2022-09-13T12:56:09;22.50;99.20
59651;DHT22;45954;49.768;8.636;2022-09-13T12:59:18;22.60;98.60
59651;DHT22;45954;49.768;8.636;2022-09-13T13:01:49;22.50;99.30
59651;DHT22;45954;49.768;8.636;2022-09-13T13:04:17;22.60;98.90
59651;DHT22;45954;49.768;8.636;2022-09-13T13:07:05;22.50;97.90
59651;DHT22;45954;49.768;8.636;2022-09-13T13:09:41;22.50;97.90
59651;DHT22;45954;49.768;8.636;2022-09-13T13:12:11;22.50;99.30
59651;DHT22;45954;49.768;8.636;2022-09-13T13:14:51;22.70;99.70
59651;DHT22;45954;49.768;8.636;2022-09-13T13:17:45;22.90;98.90
59651;DHT22;45954;49.768;8.636;2022-09-13T13:23:19;23.00;97.80
59651;DHT22;45954;49.768;8.636;2022-09-13T13:26:02;23.00;97.80
59651;DHT22;45954;49.768;8.636;2022-09-13T13:36:50;23.00;97.90
59651;DHT22;45954;49.768;8.636;2022-09-13T13:55:21;22.70;98.70
59651;DHT22;45954;49.768;8.636;2022-09-13T13:58:26;22.80;99.00
59651;DHT22;45954;49.768;8.636;2022-09-13T14:00:59;22.70;99.10
59651;DHT22;45954;49.768;8.636;2022-09-13T14:06:47;23.00;98.60
59651;DHT22;45954;49.768;8.636;2022-09-13T14:09:59;23.00;97.90
59651;DHT22;45954;49.768;8.636;2022-09-13T14:15:21;22.70;98.20
59651;DHT22;45954;49.768;8.636;2022-09-13T14:18:29;22.70;97.70
59651;DHT22;45954;49.768;8.636;2022-09-13T14:21:22;22.80;97.90
59651;DHT22;45954;49.768;8.636;2022-09-13T14:23:50;22.90;97.90
59651;DHT22;45954;49.768;8.636;2022-09-13T14:26:16;22.90;98.80
59651;DHT22;45954;49.768;8.636;2022-09-13T14:28:42;22.80;98.20
59651;DHT22;45954;49.768;8.636;2022-09-13T14:31:16;22.80;97.60
59651;DHT22;45954;49.768;8.636;2022-09-13T14:33:45;22.90;97.30
59651;DHT22;45954;49.768;8.636;2022-09-13T14:36:21;22.90;97.30
59651;DHT22;45954;49.768;8.636;2022-09-13T14:38:57;22.90;97.60
59651;DHT22;45954;49.768;8.636;2022-09-13T14:41:37;22.90;97.40
59651;DHT22;45954;49.768;8.636;2022-09-13T14:46:55;22.90;97.50
59651;DHT22;45954;49.768;8.636;2022-09-13T14:49:33;23.00;98.50
59651;DHT22;45954;49.768;8.636;2022-09-13T14:52:14;23.00;98.30
59651;DHT22;45954;49.768;8.636;2022-09-13T14:54:50;23.00;97.90
59651;DHT22;45954;49.768;8.636;2022-09-13T14:57:26;22.90;98.10
59651;DHT22;45954;49.768;8.636;2022-09-13T15:00:00;22.90;98.50
59651;DHT22;45954;49.768;8.636;2022-09-13T15:02:39;22.80;97.60
59651;DHT22;45954;49.768;8.636;2022-09-13T15:05:13;23.10;97.80
59651;DHT22;45954;49.768;8.636;2022-09-13T15:07:42;23.00;98.30
59651;DHT22;45954;49.768;8.636;2022-09-13T15:15:36;22.80;98.20
59651;DHT22;45954;49.768;8.636;2022-09-13T15:20:59;22.90;98.20
59651;DHT22;45954;49.768;8.636;2022-09-13T15:26:10;22.90;98.50
59651;DHT22;45954;49.768;8.636;2022-09-13T15:31:18;22.80;98.90
59651;DHT22;45954;49.768;8.636;2022-09-13T15:33:48;22.80;98.90
59651;DHT22;45954;49.768;8.636;2022-09-13T15:37:28;22.80;99.00
59651;DHT22;45954;49.768;8.636;2022-09-13T15:40:00;22.90;99.00
59651;DHT22;45954;49.768;8.636;2022-09-13T15:42:32;23.00;99.00
59651;DHT22;45954;49.768;8.636;2022-09-13T15:44:58;23.00;98.70
59651;DHT22;45954;49.768;8.636;2022-09-13T15:47:24;23.00;99.50
59651;DHT22;45954;49.768;8.636;2022-09-13T15:49:51;22.90;99.40
59651;DHT22;45954;49.768;8.636;2022-09-13T15:52:18;22.90;99.30
59651;DHT22;45954;49.768;8.636;2022-09-13T15:54:47;22.80;99.60
59651;DHT22;45954;49.768;8.636;2022-09-13T15:57:26;22.80;99.50
59651;DHT22;45954;49.768;8.636;2022-09-13T15:59:54;22.80;99.50
59651;DHT22;45954;49.768;8.636;2022-09-13T16:02:28;22.70;99.90
59651;DHT22;45954;49.768;8.636;2022-09-13T16:04:56;22.70;99.60
59651;DHT22;45954;49.768;8.636;2022-09-13T16:07:24;22.70;99.50
59651;DHT22;45954;49.768;8.636;2022-09-13T16:09:51;22.70;99.90
59651;DHT22;45954;49.768;8.636;2022-09-13T16:12:18;22.50;99.80
59651;DHT22;45954;49.768;8.636;2022-09-13T16:14:46;22.70;99.70
59651;DHT22;45954;49.768;8.636;2022-09-13T16:17:20;22.50;99.90
59651;DHT22;45954;49.768;8.636;2022-09-13T16:19:48;22.50;99.90
59651;DHT22;45954;49.768;8.636;2022-09-13T16:22:14;22.50;99.70
59651;DHT22;45954;49.768;8.636;2022-09-13T16:24:40;22.70;99.50
59651;DHT22;45954;49.768;8.636;2022-09-13T16:27:06;22.60;99.90
59651;DHT22;45954;49.768;8.636;2022-09-13T16:29:32;22.60;99.50
59651;DHT22;45954;49.768;8.636;2022-09-13T16:31:58;22.70;98.40
59651;DHT22;45954;49.768;8.636;2022-09-13T16:34:26;22.70;99.90
59651;DHT22;45954;49.768;8.636;2022-09-13T16:36:52;22.60;99.90
59651;DHT22;45954;49.768;8.636;2022-09-13T16:39:18;22.50;99.90
59651;DHT22;45954;49.768;8.636;2022-09-13T16:41:44;22.30;99.90
59651;DHT22;45954;49.768;8.636;2022-09-13T16:44:10;22.20;99.90
59651;DHT22;45954;49.768;8.636;2022-09-13T16:46:36;22.20;99.90
59651;DHT22;45954;49.768;8.636;2022-09-13T16:49:02;22.20;99.90
59651;DHT22;45954;49.768;8.636;2022-09-13T16:51:29;22.10;99.90
59651;DHT22;45954;49.768;8.636;2022-09-13T16:53:55;22.00;99.90
59651;DHT22;45954;49.768;8.636;2022-09-13T16:56:23;21.90;99.90
59651;DHT22;45954;49.768;8.636;2022-09-13T16:58:51;22.00;99.90
59651;DHT22;45954;49.768;8.636;2022-09-13T17:01:21;22.00;99.90
59651;DHT22;45954;49.768;8.636;2022-09-13T17:03:51;22.00;99.90
59651;DHT22;45954;49.768;8.636;2022-09-13T17:06:18;22.00;99.90
59651;DHT22;45954;49.768;8.636;2022-09-13T17:08:49;22.00;99.90
59651;DHT22;45954;49.768;8.636;2022-09-13T17:11:22;22.10;99.90
59651;DHT22;45954;49.768;8.636;2022-09-13T17:13:49;22.00;99.90
59651;DHT22;45954;49.768;8.636;2022-09-13T17:16:22;22.00;99.90
59651;DHT22;45954;49.768;8.636;2022-09-13T17:18:48;21.90;99.90
59651;DHT22;45954;49.768;8.636;2022-09-13T17:21:14;21.80;99.90
59651;DHT22;45954;49.768;8.636;2022-09-13T17:23:40;21.60;99.90
59651;DHT22;45954;49.768;8.636;2022-09-13T17:26:05;21.50;99.90
59651;DHT22;45954;49.768;8.636;2022-09-13T17:28:32;21.60;99.90
59651;DHT22;45954;49.768;8.636;2022-09-13T17:30:59;21.70;99.90
59651;DHT22;45954;49.768;8.636;2022-09-13T17:33:26;21.80;99.90
59651;DHT22;45954;49.768;8.636;2022-09-13T17:36:05;22.00;99.90
59651;DHT22;45954;49.768;8.636;2022-09-13T17:38:37;21.90;99.90
59651;DHT22;45954;49.768;8.636;2022-09-13T17:41:07;21.70;99.90
59651;DHT22;45954;49.768;8.636;2022-09-13T17:43:38;21.40;99.90
59651;DHT22;45954;49.768;8.636;2022-09-13T17:46:09;21.50;99.90
59651;DHT22;45954;49.768;8.636;2022-09-13T17:48:37;21.50;99.90
59651;DHT22;45954;49.768;8.636;2022-09-13T17:51:05;21.60;99.90
59651;DHT22;45954;49.768;8.636;2022-09-13T17:53:45;21.60;99.90
59651;DHT22;45954;49.768;8.636;2022-09-13T17:56:39;21.70;99.90
59651;DHT22;45954;49.768;8.636;2022-09-13T17:59:14;22.00;99.90
59651;DHT22;45954;49.768;8.636;2022-09-13T18:01:47;21.90;99.90
59651;DHT22;45954;49.768;8.636;2022-09-13T18:04:18;21.70;99.90
59651;DHT22;45954;49.768;8.636;2022-09-13T18:06:45;21.80;99.90
59651;DHT22;45954;49.768;8.636;2022-09-13T18:09:13;21.60;99.90
59651;DHT22;45954;49.768;8.636;2022-09-13T18:11:40;21.70;99.90
59651;DHT22;45954;49.768;8.636;2022-09-13T18:14:11;21.60;99.90
59651;DHT22;45954;49.768;8.636;2022-09-13T18:16:39;21.40;99.90
59651;DHT22;45954;49.768;8.636;2022-09-13T18:19:06;21.40;99.90
59651;DHT22;45954;49.768;8.636;2022-09-13T18:21:32;21.40;99.90
59651;DHT22;45954;49.768;8.636;2022-09-13T18:23:59;21.40;99.90
59651;DHT22;45954;49.768;8.636;2022-09-13T18:26:29;21.40;99.90
59651;DHT22;45954;49.768;8.636;2022-09-13T18:29:05;21.60;99.90
59651;DHT22;45954;49.768;8.636;2022-09-13T18:31:35;21.80;99.90
59651;DHT22;45954;49.768;8.636;2022-09-13T18:34:05;21.70;99.90
59651;DHT22;45954;49.768;8.636;2022-09-13T18:36:34;21.60;99.90
59651;DHT22;45954;49.768;8.636;2022-09-13T18:39:02;21.50;99.90
59651;DHT22;45954;49.768;8.636;2022-09-13T18:41:31;21.30;99.90
59651;DHT22;45954;49.768;8.636;2022-09-13T18:43:59;21.30;99.90
59651;DHT22;45954;49.768;8.636;2022-09-13T18:46:27;21.10;99.90
59651;DHT22;45954;49.768;8.636;2022-09-13T18:48:56;21.10;99.90
59651;DHT22;45954;49.768;8.636;2022-09-13T18:51:26;21.20;99.90
59651;DHT22;45954;49.768;8.636;2022-09-13T18:53:54;20.90;99.90
59651;DHT22;45954;49.768;8.636;2022-09-13T18:56:21;20.80;99.90
59651;DHT22;45954;49.768;8.636;2022-09-13T18:58:48;20.60;99.90
59651;DHT22;45954;49.768;8.636;2022-09-13T19:01:28;20.80;99.90